Terminal Aerodrome Forecast
Issued by NWS

Home | Current Version | Previous Version | Graphics & Text | Print | Product List | Glossary On
Versions: 1 2 3 4 5 6 7 8 9 10 11 12 13 14 15 16 17 18 19 20 21 22 23 24 25 26
000
FTUS43 KBIS 130804 AAB
TAFJMS
TAF AMD
KJMS 130804Z 1308/1406 32022G29KT P6SM VCSH SCT012 OVC035
     FM131200 33022G32KT P6SM OVC015
     FM140000 34013KT P6SM BKN020=

USA.gov is the U.S. government's official web portal to all federal, state and local government web resources and services.